sensor_id;sensor_type;location;lat;lon;timestamp;pressure;altitude;pressure_sealevel;temperature;humidity
58090;BME280;45149;50.976;6.120;2022-12-20T00:02:22;100260.16;;;16.76;62.61
58090;BME280;45149;50.976;6.120;2022-12-20T00:04:48;100260.97;;;16.76;62.58
58090;BME280;45149;50.976;6.120;2022-12-20T00:07:13;100267.19;;;16.77;62.73
58090;BME280;45149;50.976;6.120;2022-12-20T00:09:39;100260.16;;;16.76;62.76
58090;BME280;45149;50.976;6.120;2022-12-20T00:12:04;100254.22;;;16.74;62.73
58090;BME280;45149;50.976;6.120;2022-12-20T00:14:30;100258.78;;;16.73;62.80
58090;BME280;45149;50.976;6.120;2022-12-20T00:16:55;100263.09;;;16.74;62.63
58090;BME280;45149;50.976;6.120;2022-12-20T00:19:20;100264.47;;;16.77;62.65
58090;BME280;45149;50.976;6.120;2022-12-20T00:21:46;100264.75;;;16.75;62.60
58090;BME280;45149;50.976;6.120;2022-12-20T00:24:11;100265.28;;;16.72;62.89
58090;BME280;45149;50.976;6.120;2022-12-20T00:26:36;100255.03;;;16.74;62.90
58090;BME280;45149;50.976;6.120;2022-12-20T00:29:02;100255.03;;;16.74;62.65
58090;BME280;45149;50.976;6.120;2022-12-20T00:31:29;100245.56;;;16.72;62.92
58090;BME280;45149;50.976;6.120;2022-12-20T00:33:55;100245.56;;;16.72;62.78
58090;BME280;45149;50.976;6.120;2022-12-20T00:36:22;100244.75;;;16.71;62.99
58090;BME280;45149;50.976;6.120;2022-12-20T00:38:49;100242.34;;;16.70;62.86
58090;BME280;45149;50.976;6.120;2022-12-20T00:41:20;100238.53;;;16.71;62.91
58090;BME280;45149;50.976;6.120;2022-12-20T00:43:46;100237.47;;;16.72;62.87
58090;BME280;45149;50.976;6.120;2022-12-20T00:46:13;100239.38;;;16.71;62.94
58090;BME280;45149;50.976;6.120;2022-12-20T00:48:39;100228.84;;;16.70;62.91
58090;BME280;45149;50.976;6.120;2022-12-20T00:51:10;100229.91;;;16.69;62.87
58090;BME280;45149;50.976;6.120;2022-12-20T00:53:36;100227.22;;;16.69;62.94
58090;BME280;45149;50.976;6.120;2022-12-20T00:56:02;100225.59;;;16.68;62.99
58090;BME280;45149;50.976;6.120;2022-12-20T00:58:28;100217.78;;;16.66;63.11
58090;BME280;45149;50.976;6.120;2022-12-20T01:00:54;100219.41;;;16.67;63.07
58090;BME280;45149;50.976;6.120;2022-12-20T01:03:19;100216.97;;;16.66;63.05
58090;BME280;45149;50.976;6.120;2022-12-20T01:05:59;100218.84;;;16.65;63.20
58090;BME280;45149;50.976;6.120;2022-12-20T01:08:26;100219.66;;;16.66;63.15
58090;BME280;45149;50.976;6.120;2022-12-20T01:11:03;100220.72;;;16.64;63.28
58090;BME280;45149;50.976;6.120;2022-12-20T01:13:29;100228.03;;;16.64;63.21
58090;BME280;45149;50.976;6.120;2022-12-20T01:15:55;100225.06;;;16.66;63.23
58090;BME280;45149;50.976;6.120;2022-12-20T01:18:21;100222.34;;;16.66;63.09
58090;BME280;45149;50.976;6.120;2022-12-20T01:20:46;100224.22;;;16.65;63.09
58090;BME280;45149;50.976;6.120;2022-12-20T01:23:11;100235.84;;;16.66;62.99
58090;BME280;45149;50.976;6.120;2022-12-20T01:25:37;100231.25;;;16.66;62.90
58090;BME280;45149;50.976;6.120;2022-12-20T01:28:02;100235.00;;;16.65;63.12
58090;BME280;45149;50.976;6.120;2022-12-20T01:30:28;100242.31;;;16.64;63.11
58090;BME280;45149;50.976;6.120;2022-12-20T01:32:54;100245.25;;;16.63;63.18
58090;BME280;45149;50.976;6.120;2022-12-20T01:35:19;100236.34;;;16.62;63.04
58090;BME280;45149;50.976;6.120;2022-12-20T01:37:44;100234.47;;;16.63;63.23
58090;BME280;45149;50.976;6.120;2022-12-20T01:40:10;100236.59;;;16.61;63.16
58090;BME280;45149;50.976;6.120;2022-12-20T01:42:36;100232.31;;;16.60;63.14
58090;BME280;45149;50.976;6.120;2022-12-20T01:45:02;100216.94;;;16.60;63.25
58090;BME280;45149;50.976;6.120;2022-12-20T01:47:31;100210.75;;;16.60;63.27
58090;BME280;45149;50.976;6.120;2022-12-20T01:49:58;100207.22;;;16.59;63.46
58090;BME280;45149;50.976;6.120;2022-12-20T01:52:38;100209.38;;;16.57;63.44
58090;BME280;45149;50.976;6.120;2022-12-20T01:55:16;100205.06;;;16.56;63.30
58090;BME280;45149;50.976;6.120;2022-12-20T01:58:09;100205.59;;;16.58;63.34
58090;BME280;45149;50.976;6.120;2022-12-20T02:00:36;100206.41;;;16.59;63.44
58090;BME280;45149;50.976;6.120;2022-12-20T02:03:07;100199.13;;;16.59;63.40
58090;BME280;45149;50.976;6.120;2022-12-20T02:05:39;100202.88;;;16.58;63.33
58090;BME280;45149;50.976;6.120;2022-12-20T02:08:05;100198.84;;;16.56;63.41
58090;BME280;45149;50.976;6.120;2022-12-20T02:15:56;100196.16;;;16.56;63.33
58090;BME280;45149;50.976;6.120;2022-12-20T02:18:51;100195.91;;;16.57;63.42
58090;BME280;45149;50.976;6.120;2022-12-20T02:21:45;100199.66;;;16.56;63.35
58090;BME280;45149;50.976;6.120;2022-12-20T02:32:31;100201.78;;;16.54;63.45
58090;BME280;45149;50.976;6.120;2022-12-20T02:34:58;100205.59;;;16.53;63.41
58090;BME280;45149;50.976;6.120;2022-12-20T02:37:23;100193.97;;;16.53;63.42
58090;BME280;45149;50.976;6.120;2022-12-20T02:39:49;100199.34;;;16.53;63.50
58090;BME280;45149;50.976;6.120;2022-12-20T02:42:19;100192.09;;;16.53;63.51
58090;BME280;45149;50.976;6.120;2022-12-20T02:44:51;100184.00;;;16.53;63.47
58090;BME280;45149;50.976;6.120;2022-12-20T02:47:44;100195.06;;;16.52;63.49
58090;BME280;45149;50.976;6.120;2022-12-20T02:50:12;100198.56;;;16.52;63.49
58090;BME280;45149;50.976;6.120;2022-12-20T02:52:38;100193.69;;;16.54;63.62
58090;BME280;45149;50.976;6.120;2022-12-20T02:55:05;100202.88;;;16.53;63.45
58090;BME280;45149;50.976;6.120;2022-12-20T02:57:55;100188.56;;;16.53;63.49
58090;BME280;45149;50.976;6.120;2022-12-20T03:00:23;100179.69;;;16.52;63.55
58090;BME280;45149;50.976;6.120;2022-12-20T03:02:49;100180.75;;;16.51;63.36
58090;BME280;45149;50.976;6.120;2022-12-20T03:05:42;100179.13;;;16.50;63.46
58090;BME280;45149;50.976;6.120;2022-12-20T03:08:08;100174.31;;;16.52;63.48
58090;BME280;45149;50.976;6.120;2022-12-20T03:10:34;100172.94;;;16.50;63.56
58090;BME280;45149;50.976;6.120;2022-12-20T03:12:59;100182.91;;;16.49;63.46
58090;BME280;45149;50.976;6.120;2022-12-20T03:15:24;100174.00;;;16.48;63.56
58090;BME280;45149;50.976;6.120;2022-12-20T03:17:50;100178.31;;;16.50;63.49
58090;BME280;45149;50.976;6.120;2022-12-20T03:20:15;100177.78;;;16.47;63.54
58090;BME280;45149;50.976;6.120;2022-12-20T03:22:40;100176.97;;;16.47;63.53
58090;BME280;45149;50.976;6.120;2022-12-20T03:25:06;100179.38;;;16.48;63.51
58090;BME280;45149;50.976;6.120;2022-12-20T03:27:32;100176.97;;;16.47;63.50
58090;BME280;45149;50.976;6.120;2022-12-20T03:29:57;100180.47;;;16.47;63.50
58090;BME280;45149;50.976;6.120;2022-12-20T03:32:22;100176.16;;;16.46;63.45
58090;BME280;45149;50.976;6.120;2022-12-20T03:34:48;100174.53;;;16.45;63.51
58090;BME280;45149;50.976;6.120;2022-12-20T03:37:13;100179.66;;;16.47;63.53
58090;BME280;45149;50.976;6.120;2022-12-20T03:39:39;100174.53;;;16.45;63.54
58090;BME280;45149;50.976;6.120;2022-12-20T03:42:04;100168.34;;;16.45;63.74
58090;BME280;45149;50.976;6.120;2022-12-20T03:44:29;100171.03;;;16.45;63.60
58090;BME280;45149;50.976;6.120;2022-12-20T03:46:55;100173.72;;;16.45;63.49
58090;BME280;45149;50.976;6.120;2022-12-20T03:49:20;100169.41;;;16.44;63.56
58090;BME280;45149;50.976;6.120;2022-12-20T03:51:45;100175.59;;;16.44;63.42
58090;BME280;45149;50.976;6.120;2022-12-20T03:54:11;100165.06;;;16.43;63.53
58090;BME280;45149;50.976;6.120;2022-12-20T03:56:36;100164.00;;;16.44;63.50
58090;BME280;45149;50.976;6.120;2022-12-20T03:59:02;100162.66;;;16.41;63.45
58090;BME280;45149;50.976;6.120;2022-12-20T04:01:28;100162.38;;;16.43;63.48
58090;BME280;45149;50.976;6.120;2022-12-20T04:03:53;100151.59;;;16.43;63.49
58090;BME280;45149;50.976;6.120;2022-12-20T04:06:20;100156.19;;;16.42;63.40
58090;BME280;45149;50.976;6.120;2022-12-20T04:08:46;100159.94;;;16.41;63.44
58090;BME280;45149;50.976;6.120;2022-12-20T04:11:11;100163.47;;;16.42;63.54
58090;BME280;45149;50.976;6.120;2022-12-20T04:13:47;100157.25;;;16.41;63.46
58090;BME280;45149;50.976;6.120;2022-12-20T04:16:13;100155.38;;;16.42;63.50
58090;BME280;45149;50.976;6.120;2022-12-20T04:18:39;100144.03;;;16.40;63.53
58090;BME280;45149;50.976;6.120;2022-12-20T04:21:05;100141.34;;;16.40;63.56
58090;BME280;45149;50.976;6.120;2022-12-20T04:23:35;100137.03;;;16.39;63.71
58090;BME280;45149;50.976;6.120;2022-12-20T04:26:01;100133.53;;;16.38;63.60
58090;BME280;45149;50.976;6.120;2022-12-20T04:28:27;100117.09;;;16.40;63.78
58090;BME280;45149;50.976;6.120;2022-12-20T04:30:53;100114.66;;;16.38;63.55
58090;BME280;45149;50.976;6.120;2022-12-20T04:33:18;100125.44;;;16.38;63.86
58090;BME280;45149;50.976;6.120;2022-12-20T04:35:44;100122.47;;;16.40;63.67
58090;BME280;45149;50.976;6.120;2022-12-20T04:38:09;100122.47;;;16.40;63.59
58090;BME280;45149;50.976;6.120;2022-12-20T04:40:34;100115.19;;;16.40;63.71
58090;BME280;45149;50.976;6.120;2022-12-20T04:43:00;100113.59;;;16.39;63.73
58090;BME280;45149;50.976;6.120;2022-12-20T04:45:25;100114.41;;;16.40;63.70
58090;BME280;45149;50.976;6.120;2022-12-20T04:47:50;100113.59;;;16.39;63.76
58090;BME280;45149;50.976;6.120;2022-12-20T04:50:16;100117.38;;;16.38;63.67
58090;BME280;45149;50.976;6.120;2022-12-20T04:52:43;100113.88;;;16.43;63.66
58090;BME280;45149;50.976;6.120;2022-12-20T04:55:27;100107.13;;;16.40;63.64
58090;BME280;45149;50.976;6.120;2022-12-20T04:57:52;100107.13;;;16.40;63.82
58090;BME280;45149;50.976;6.120;2022-12-20T05:00:18;100102.81;;;16.39;63.75
58090;BME280;45149;50.976;6.120;2022-12-20T05:02:43;100100.41;;;16.38;63.82
58090;BME280;45149;50.976;6.120;2022-12-20T05:05:09;100093.91;;;16.39;63.88
58090;BME280;45149;50.976;6.120;2022-12-20T05:07:34;100092.03;;;16.39;63.82
58090;BME280;45149;50.976;6.120;2022-12-20T05:09:59;100096.59;;;16.39;63.79
58090;BME280;45149;50.976;6.120;2022-12-20T05:12:25;100095.53;;;16.40;63.94
58090;BME280;45149;50.976;6.120;2022-12-20T05:14:50;100092.03;;;16.39;63.83
58090;BME280;45149;50.976;6.120;2022-12-20T05:17:15;100088.25;;;16.40;63.92
58090;BME280;45149;50.976;6.120;2022-12-20T05:19:41;100089.34;;;16.39;63.90
58090;BME280;45149;50.976;6.120;2022-12-20T05:22:06;100089.88;;;16.41;63.87
58090;BME280;45149;50.976;6.120;2022-12-20T05:24:50;100090.16;;;16.40;64.03
58090;BME280;45149;50.976;6.120;2022-12-20T05:27:34;100089.88;;;16.41;63.87
58090;BME280;45149;50.976;6.120;2022-12-20T05:30:00;100081.25;;;16.44;63.91
58090;BME280;45149;50.976;6.120;2022-12-20T05:32:25;100086.13;;;16.42;63.80
58090;BME280;45149;50.976;6.120;2022-12-20T05:34:50;100082.34;;;16.43;64.05
58090;BME280;45149;50.976;6.120;2022-12-20T05:37:16;100084.50;;;16.41;63.97
58090;BME280;45149;50.976;6.120;2022-12-20T05:39:41;100077.47;;;16.40;64.09
58090;BME280;45149;50.976;6.120;2022-12-20T05:42:06;100080.47;;;16.44;64.14
58090;BME280;45149;50.976;6.120;2022-12-20T05:44:32;100076.13;;;16.43;64.08
58090;BME280;45149;50.976;6.120;2022-12-20T05:46:57;100071.56;;;16.43;64.12
58090;BME280;45149;50.976;6.120;2022-12-20T05:49:22;100072.66;;;16.42;64.44
58090;BME280;45149;50.976;6.120;2022-12-20T05:51:47;100079.94;;;16.42;64.24
58090;BME280;45149;50.976;6.120;2022-12-20T05:54:13;100065.09;;;16.39;64.23
58090;BME280;45149;50.976;6.120;2022-12-20T05:56:38;100067.78;;;16.44;64.12
58090;BME280;45149;50.976;6.120;2022-12-20T05:59:04;100064.56;;;16.42;64.12
58090;BME280;45149;50.976;6.120;2022-12-20T06:01:29;100066.19;;;16.43;64.16
58090;BME280;45149;50.976;6.120;2022-12-20T06:03:54;100061.88;;;16.42;64.16
58090;BME280;45149;50.976;6.120;2022-12-20T06:06:20;100057.53;;;16.41;64.25
58090;BME280;45149;50.976;6.120;2022-12-20T06:08:46;100059.16;;;16.42;64.31
58090;BME280;45149;50.976;6.120;2022-12-20T06:11:12;100055.41;;;16.43;64.44
58090;BME280;45149;50.976;6.120;2022-12-20T06:13:37;100053.78;;;16.42;64.16
58090;BME280;45149;50.976;6.120;2022-12-20T06:16:03;100051.63;;;16.44;64.58
58090;BME280;45149;50.976;6.120;2022-12-20T06:18:28;100051.09;;;16.47;64.81
58090;BME280;45149;50.976;6.120;2022-12-20T06:20:53;100044.53;;;16.28;69.45
58090;BME280;45149;50.976;6.120;2022-12-20T06:23:19;100043.41;;;16.13;71.05
58090;BME280;45149;50.976;6.120;2022-12-20T06:25:45;100033.19;;;16.10;71.16
58090;BME280;45149;50.976;6.120;2022-12-20T06:28:11;100036.13;;;16.14;71.06
58090;BME280;45149;50.976;6.120;2022-12-20T06:30:36;100029.41;;;16.17;71.30
58090;BME280;45149;50.976;6.120;2022-12-20T06:33:02;100028.66;;;16.21;71.53
58090;BME280;45149;50.976;6.120;2022-12-20T06:35:28;100012.75;;;16.25;71.32
58090;BME280;45149;50.976;6.120;2022-12-20T06:37:54;100023.56;;;16.30;70.97
58090;BME280;45149;50.976;6.120;2022-12-20T06:40:19;100025.97;;;16.32;70.66
58090;BME280;45149;50.976;6.120;2022-12-20T06:42:45;100028.13;;;16.35;70.42
58090;BME280;45149;50.976;6.120;2022-12-20T06:45:10;100024.66;;;16.39;69.78
58090;BME280;45149;50.976;6.120;2022-12-20T06:47:36;100027.91;;;16.41;69.62
58090;BME280;45149;50.976;6.120;2022-12-20T06:50:02;100025.47;;;16.40;69.49
58090;BME280;45149;50.976;6.120;2022-12-20T06:52:28;100035.97;;;16.41;69.77
58090;BME280;45149;50.976;6.120;2022-12-20T06:54:53;100032.75;;;16.44;69.58
58090;BME280;45149;50.976;6.120;2022-12-20T06:57:19;100031.94;;;16.44;69.31
58090;BME280;45149;50.976;6.120;2022-12-20T06:59:44;100028.19;;;16.45;69.14
58090;BME280;45149;50.976;6.120;2022-12-20T07:02:10;100012.53;;;16.47;69.01
58090;BME280;45149;50.976;6.120;2022-12-20T07:04:36;100002.59;;;16.47;68.97
58090;BME280;45149;50.976;6.120;2022-12-20T07:07:02;100011.75;;;16.46;68.84
58090;BME280;45149;50.976;6.120;2022-12-20T07:09:28;100009.59;;;16.48;68.85
58090;BME280;45149;50.976;6.120;2022-12-20T07:11:54;100002.59;;;16.47;68.83
58090;BME280;45149;50.976;6.120;2022-12-20T07:14:19;100003.41;;;16.48;68.66
58090;BME280;45149;50.976;6.120;2022-12-20T07:16:45;100005.81;;;16.50;68.68
58090;BME280;45149;50.976;6.120;2022-12-20T07:19:11;100005.56;;;16.51;68.60
58090;BME280;45149;50.976;6.120;2022-12-20T07:21:37;100004.22;;;16.54;68.36
58090;BME280;45149;50.976;6.120;2022-12-20T07:24:02;100003.69;;;16.52;68.36
58090;BME280;45149;50.976;6.120;2022-12-20T07:26:27;100016.88;;;16.53;68.42
58090;BME280;45149;50.976;6.120;2022-12-20T07:28:53;100022.28;;;16.53;68.43
58090;BME280;45149;50.976;6.120;2022-12-20T07:31:18;100016.88;;;16.53;68.33
58090;BME280;45149;50.976;6.120;2022-12-20T07:33:43;100020.38;;;16.54;68.25
58090;BME280;45149;50.976;6.120;2022-12-20T07:36:10;100029.28;;;16.54;68.05
58090;BME280;45149;50.976;6.120;2022-12-20T07:38:36;100034.41;;;16.56;68.26
58090;BME280;45149;50.976;6.120;2022-12-20T07:41:09;100034.94;;;16.58;68.17
58090;BME280;45149;50.976;6.120;2022-12-20T07:43:35;100040.34;;;16.58;67.91
58090;BME280;45149;50.976;6.120;2022-12-20T07:46:00;100026.88;;;16.58;68.00
58090;BME280;45149;50.976;6.120;2022-12-20T07:48:26;100034.69;;;16.59;68.12
58090;BME280;45149;50.976;6.120;2022-12-20T07:50:56;100033.63;;;16.60;67.75
58090;BME280;45149;50.976;6.120;2022-12-20T07:53:23;100022.84;;;16.60;68.03
58090;BME280;45149;50.976;6.120;2022-12-20T07:55:52;100027.44;;;16.60;67.90
58090;BME280;45149;50.976;6.120;2022-12-20T07:58:18;100018.78;;;16.58;67.91
58090;BME280;45149;50.976;6.120;2022-12-20T08:00:44;100018.25;;;16.61;67.70
58090;BME280;45149;50.976;6.120;2022-12-20T08:03:15;100019.88;;;16.62;67.47
58090;BME280;45149;50.976;6.120;2022-12-20T08:05:43;100014.47;;;16.62;67.70
58090;BME280;45149;50.976;6.120;2022-12-20T08:08:11;100015.00;;;16.59;68.00
58090;BME280;45149;50.976;6.120;2022-12-20T08:10:37;100015.28;;;16.57;67.66
58090;BME280;45149;50.976;6.120;2022-12-20T08:13:04;100026.88;;;16.63;67.89
58090;BME280;45149;50.976;6.120;2022-12-20T08:15:30;100027.94;;;16.62;67.72
58090;BME280;45149;50.976;6.120;2022-12-20T08:17:57;100021.19;;;16.59;68.23
58090;BME280;45149;50.976;6.120;2022-12-20T08:20:22;100023.34;;;16.62;67.75
58090;BME280;45149;50.976;6.120;2022-12-20T08:22:48;100022.84;;;16.66;67.40
58090;BME280;45149;50.976;6.120;2022-12-20T08:25:13;100019.59;;;16.63;67.67
58090;BME280;45149;50.976;6.120;2022-12-20T08:27:38;100020.16;;;16.66;67.69
58090;BME280;45149;50.976;6.120;2022-12-20T08:30:05;100020.16;;;16.66;67.65
58090;BME280;45149;50.976;6.120;2022-12-20T08:32:31;100015.56;;;16.66;67.58
58090;BME280;45149;50.976;6.120;2022-12-20T08:34:56;100023.66;;;16.66;67.56
58090;BME280;45149;50.976;6.120;2022-12-20T08:37:22;100030.09;;;16.65;67.47
58090;BME280;45149;50.976;6.120;2022-12-20T08:39:47;100030.09;;;16.65;67.66
58090;BME280;45149;50.976;6.120;2022-12-20T08:42:13;100028.78;;;16.68;67.70
58090;BME280;45149;50.976;6.120;2022-12-20T08:44:38;100035.00;;;16.68;67.96
58090;BME280;45149;50.976;6.120;2022-12-20T08:47:04;100032.81;;;16.70;67.45
58090;BME280;45149;50.976;6.120;2022-12-20T08:49:29;100033.91;;;16.69;67.54
58090;BME280;45149;50.976;6.120;2022-12-20T08:51:55;100038.78;;;16.72;67.44
58090;BME280;45149;50.976;6.120;2022-12-20T08:54:20;100039.56;;;16.73;67.51
58090;BME280;45149;50.976;6.120;2022-12-20T08:56:45;100039.56;;;16.73;67.33
58090;BME280;45149;50.976;6.120;2022-12-20T08:59:11;100039.84;;;16.71;67.48
58090;BME280;45149;50.976;6.120;2022-12-20T09:01:36;100037.69;;;16.73;67.27
58090;BME280;45149;50.976;6.120;2022-12-20T09:04:02;100032.84;;;16.75;67.30
58090;BME280;45149;50.976;6.120;2022-12-20T09:06:28;100036.59;;;16.74;67.42
58090;BME280;45149;50.976;6.120;2022-12-20T09:08:53;100026.09;;;16.78;67.25
58090;BME280;45149;50.976;6.120;2022-12-20T09:11:23;100017.19;;;16.77;67.30
58090;BME280;45149;50.976;6.120;2022-12-20T09:13:52;100012.91;;;16.76;67.36
58090;BME280;45149;50.976;6.120;2022-12-20T09:16:20;100014.22;;;16.79;67.20
58090;BME280;45149;50.976;6.120;2022-12-20T09:18:53;100011.53;;;16.79;67.35
58090;BME280;45149;50.976;6.120;2022-12-20T09:21:19;100010.72;;;16.78;67.09
58090;BME280;45149;50.976;6.120;2022-12-20T09:23:44;100008.81;;;16.79;67.21
58090;BME280;45149;50.976;6.120;2022-12-20T09:26:11;100011.81;;;16.83;67.09
58090;BME280;45149;50.976;6.120;2022-12-20T09:28:38;100001.81;;;16.83;67.25
58090;BME280;45149;50.976;6.120;2022-12-20T09:31:05;100013.72;;;16.82;67.05
58090;BME280;45149;50.976;6.120;2022-12-20T09:33:32;100009.38;;;16.81;67.35
58090;BME280;45149;50.976;6.120;2022-12-20T09:35:59;100013.16;;;16.80;67.40
58090;BME280;45149;50.976;6.120;2022-12-20T09:38:25;100012.59;;;16.83;67.26
58090;BME280;45149;50.976;6.120;2022-12-20T09:40:52;100013.72;;;16.82;67.31
58090;BME280;45149;50.976;6.120;2022-12-20T09:43:19;100013.16;;;16.85;67.24
58090;BME280;45149;50.976;6.120;2022-12-20T09:45:48;100008.88;;;16.89;67.08
58090;BME280;45149;50.976;6.120;2022-12-20T09:48:21;100004.00;;;16.86;67.13
58090;BME280;45149;50.976;6.120;2022-12-20T09:51:09;100004.28;;;16.85;67.39
58090;BME280;45149;50.976;6.120;2022-12-20T09:56:31;100008.31;;;16.87;67.19
58090;BME280;45149;50.976;6.120;2022-12-20T09:59:03;100008.09;;;16.89;67.07
58090;BME280;45149;50.976;6.120;2022-12-20T10:01:31;100004.53;;;16.88;66.93
58090;BME280;45149;50.976;6.120;2022-12-20T10:03:59;100003.22;;;16.91;66.96
58090;BME280;45149;50.976;6.120;2022-12-20T10:08:58;99993.78;;;16.93;66.98
58090;BME280;45149;50.976;6.120;2022-12-20T10:16:48;99975.97;;;16.92;66.96
58090;BME280;45149;50.976;6.120;2022-12-20T10:25:01;99980.03;;;16.95;66.90
58090;BME280;45149;50.976;6.120;2022-12-20T10:27:26;99975.72;;;16.94;66.85
58090;BME280;45149;50.976;6.120;2022-12-20T10:29:52;99970.88;;;16.96;66.89
58090;BME280;45149;50.976;6.120;2022-12-20T10:32:21;99966.25;;;16.96;67.07
58090;BME280;45149;50.976;6.120;2022-12-20T10:35:00;99971.94;;;17.00;66.88
58090;BME280;45149;50.976;6.120;2022-12-20T10:38:03;99965.72;;;17.00;66.97
58090;BME280;45149;50.976;6.120;2022-12-20T10:43:17;99966.56;;;17.00;67.00
58090;BME280;45149;50.976;6.120;2022-12-20T10:45:45;99962.22;;;16.99;67.04
58090;BME280;45149;50.976;6.120;2022-12-20T10:48:29;99953.34;;;16.98;67.04
58090;BME280;45149;50.976;6.120;2022-12-20T10:51:00;99952.78;;;17.02;66.95
58090;BME280;45149;50.976;6.120;2022-12-20T10:53:27;99956.00;;;17.04;66.95
58090;BME280;45149;50.976;6.120;2022-12-20T10:55:53;99954.94;;;17.00;67.16
58090;BME280;45149;50.976;6.120;2022-12-20T10:58:31;99962.22;;;16.99;67.25
58090;BME280;45149;50.976;6.120;2022-12-20T11:01:18;99957.63;;;17.00;67.34
58090;BME280;45149;50.976;6.120;2022-12-20T11:03:59;99960.09;;;17.01;67.23
58090;BME280;45149;50.976;6.120;2022-12-20T11:06:45;99952.22;;;17.00;67.16
58090;BME280;45149;50.976;6.120;2022-12-20T11:09:27;99947.94;;;16.98;67.18
58090;BME280;45149;50.976;6.120;2022-12-20T11:12:13;99946.03;;;16.99;67.28
58090;BME280;45149;50.976;6.120;2022-12-20T11:14:44;99945.75;;;17.01;67.36
58090;BME280;45149;50.976;6.120;2022-12-20T11:20:03;99943.63;;;16.97;67.48
58090;BME280;45149;50.976;6.120;2022-12-20T11:26:22;99932.28;;;16.95;68.58
58090;BME280;45149;50.976;6.120;2022-12-20T11:28:57;99932.31;;;16.90;68.77
58090;BME280;45149;50.976;6.120;2022-12-20T11:34:43;99923.38;;;16.85;68.92
58090;BME280;45149;50.976;6.120;2022-12-20T11:37:19;99927.16;;;16.84;69.25
58090;BME280;45149;50.976;6.120;2022-12-20T11:40:19;99927.16;;;16.84;69.35
58090;BME280;45149;50.976;6.120;2022-12-20T11:51:23;99948.16;;;16.81;69.71
58090;BME280;45149;50.976;6.120;2022-12-20T11:56:40;99933.88;;;16.81;69.83
58090;BME280;45149;50.976;6.120;2022-12-20T12:02:10;99933.88;;;16.81;70.00
58090;BME280;45149;50.976;6.120;2022-12-20T12:05:06;99937.38;;;16.81;70.04
58090;BME280;45149;50.976;6.120;2022-12-20T12:07:40;99929.28;;;16.81;70.05
58090;BME280;45149;50.976;6.120;2022-12-20T12:10:15;99895.84;;;16.62;70.14
58090;BME280;45149;50.976;6.120;2022-12-20T12:12:43;99910.41;;;16.81;70.34
58090;BME280;45149;50.976;6.120;2022-12-20T12:18:04;99911.22;;;16.87;70.02
58090;BME280;45149;50.976;6.120;2022-12-20T12:25:48;99893.97;;;16.88;69.89
58090;BME280;45149;50.976;6.120;2022-12-20T12:28:17;99899.34;;;16.88;70.11
58090;BME280;45149;50.976;6.120;2022-12-20T12:30:48;99873.47;;;16.82;70.34
58090;BME280;45149;50.976;6.120;2022-12-20T12:33:42;99872.66;;;16.87;70.40
58090;BME280;45149;50.976;6.120;2022-12-20T12:36:23;99878.06;;;16.87;70.44
58090;BME280;45149;50.976;6.120;2022-12-20T12:46:44;99876.72;;;16.89;70.42
58090;BME280;45149;50.976;6.120;2022-12-20T12:49:16;99873.25;;;16.89;70.49
58090;BME280;45149;50.976;6.120;2022-12-20T12:51:50;99886.44;;;16.90;70.72
58090;BME280;45149;50.976;6.120;2022-12-20T12:54:28;99878.34;;;16.90;70.55
58090;BME280;45149;50.976;6.120;2022-12-20T12:57:02;99873.50;;;16.92;70.51
58090;BME280;45149;50.976;6.120;2022-12-20T13:04:29;99856.47;;;16.87;70.43
58090;BME280;45149;50.976;6.120;2022-12-20T13:06:59;99871.63;;;16.93;70.59
58090;BME280;45149;50.976;6.120;2022-12-20T13:11:51;99873.22;;;16.94;70.48
58090;BME280;45149;50.976;6.120;2022-12-20T13:16:44;99866.75;;;16.95;70.47
58090;BME280;45149;50.976;6.120;2022-12-20T13:19:13;99874.84;;;16.95;70.55
58090;BME280;45149;50.976;6.120;2022-12-20T13:21:40;99879.16;;;16.96;70.67
58090;BME280;45149;50.976;6.120;2022-12-20T13:40:44;99865.13;;;16.94;70.84
58090;BME280;45149;50.976;6.120;2022-12-20T13:45:46;99867.03;;;16.93;70.94
58090;BME280;45149;50.976;6.120;2022-12-20T13:48:15;99869.72;;;16.93;71.26
58090;BME280;45149;50.976;6.120;2022-12-20T13:50:50;99860.56;;;16.94;71.30
58090;BME280;45149;50.976;6.120;2022-12-20T13:53:18;99860.56;;;16.94;71.15
58090;BME280;45149;50.976;6.120;2022-12-20T13:55:44;99862.16;;;16.95;71.13
58090;BME280;45149;50.976;6.120;2022-12-20T13:58:32;99855.16;;;16.89;71.25
58090;BME280;45149;50.976;6.120;2022-12-20T14:01:06;99864.84;;;16.95;71.08
58090;BME280;45149;50.976;6.120;2022-12-20T14:03:39;99863.78;;;16.96;71.18
58090;BME280;45149;50.976;6.120;2022-12-20T14:06:09;99859.44;;;16.95;71.26
58090;BME280;45149;50.976;6.120;2022-12-20T14:08:38;99857.03;;;16.94;71.24
58090;BME280;45149;50.976;6.120;2022-12-20T14:11:16;99861.06;;;16.96;71.20
58090;BME280;45149;50.976;6.120;2022-12-20T14:13:59;99859.22;;;16.97;71.27
58090;BME280;45149;50.976;6.120;2022-12-20T14:16:27;99863.53;;;16.93;71.52
58090;BME280;45149;50.976;6.120;2022-12-20T14:21:22;99854.59;;;16.92;71.53
58090;BME280;45149;50.976;6.120;2022-12-20T14:23:50;99859.44;;;16.95;71.62
58090;BME280;45149;50.976;6.120;2022-12-20T14:26:23;99850.84;;;16.93;71.85
58090;BME280;45149;50.976;6.120;2022-12-20T14:28:50;99851.63;;;16.94;71.66
58090;BME280;45149;50.976;6.120;2022-12-20T14:36:35;99845.44;;;16.98;71.52
58090;BME280;45149;50.976;6.120;2022-12-20T14:39:22;99846.25;;;16.99;71.57
58090;BME280;45149;50.976;6.120;2022-12-20T14:41:55;99841.41;;;16.96;71.78
58090;BME280;45149;50.976;6.120;2022-12-20T14:44:22;99803.94;;;16.74;71.93
58090;BME280;45149;50.976;6.120;2022-12-20T14:46:50;99835.44;;;16.94;72.11
58090;BME280;45149;50.976;6.120;2022-12-20T14:49:30;99832.47;;;16.95;71.93
58090;BME280;45149;50.976;6.120;2022-12-20T14:57:30;99831.41;;;16.96;71.97